Newport, OR

5:15 PM PST on February 13, 2016 (GMT -0800)
Schooner Point (new) | | Change Station
CLOSE
Current Station
Personal Weather Station
Location: Newport, OR
Elevation: 120 ft
Nearby Weather Stations

Elev 120 ft 44.69 °N, 124.07 °W | Updated 13 seconds ago

Rain
Rain
50.3 °F
Feels Like 50.3 °F
N
31.0
Wind Variable Wind from SSW
Gusts 31.0 mph

Today
High -- | Low -- °F
--% Chance of Precip.
Yesterday
High -- | Low -- °F
Precip. -- in
Pressure 30.24 in
Visibility 1.2 miles
Clouds Overcast 600 ft
Dew Point 49 °F
Humidity 96%
Rainfall 0.15 in
Snow Depth Not available.
7:19 AM 5:41 PM
Waxing Crescent, 36% visible
METAR KONP 140055Z AUTO 20022G30KT 1 1/4SM RA OVC006 10/08 A3024 RMK AO2 P0007
Pressure 30.24 in
Visibility 1.2 miles
Clouds Overcast 600 ft
Dew Point 49 °F
Humidity 96%
Rainfall 0.15 in
Snow Depth Not available.
7:19 AM 5:41 PM
Waxing Crescent, 36% visible
METAR KONP 140055Z AUTO 20022G30KT 1 1/4SM RA OVC006 10/08 A3024 RMK AO2 P0007

10-Day Weather Forecast

Almanac

Astronomy

Feb. 13, 2016 Rise Set
Actual Time
Civil Twilight
Nautical Twilight
Astronomical Twilight
Moon
Length of Visible Light
Length of Day
Tomorrow will be .
, % of the Moon is Illuminated

Today's Extremes

State Highs State Lows

Community

WunderPhotos

Upload Photos

1,892,723 photos uploaded!

WunderBlog® & News

Nearby

Air Quality

  Air Quality AQ Index Pollutant
Not available.

Snow Depth

Station Depth Elevation

Earthquake Activity

City Distance Mag. Time & Date
Minimum magnitude displayed is 2.5.

Coastal Water Temperatures

Place Temperature

Stations

Nearby Weather Stations

Station Location Temp. Windchill Dew Point Humidity Wind Precip. Elev Updated Type
                   

Watches & Warnings

There are currently no watches in effect.